Decoded METAR Reports


Created by using MetarWeather

Station Name Location Elevation Time Temperature Dew Point RH Heat Index Wind Visibility Pressure Sky Condition Weather Remarks METAR
Alexandroupolis  40.85N 25.92E  3m  09/02/2016 21:20:00  8.0C  7.0C  93%  N/A  7 km/h, WNW (290 degrees)  > 10000m  1020.0 mb  Few clouds at 760m
Broken clouds at 1200m
 
      LGAL 091920Z 29004KT 9999 FEW025 BKN040 08/07 Q1020 
Andravida (Civ/A  37.92N 21.27E  12m  09/02/2016 21:20:00  10.0C  8.0C  87%  N/A  Calm  > 10000m  1022.0 mb  Few clouds at 610m
 
      LGAD 091920Z 00000KT 9999 FEW020 10/08 Q1022 
Araxos (Civ/Afb)  38.17N 21.42E  15m  09/02/2016 20:50:00  13.0C  11.0C  88%  N/A  7 km/h, SSW (200 degrees)  > 10000m  1022.0 mb  Few clouds at 760m
Scattered clouds at 1400m
 
      LGRX 091850Z 20004KT 9999 FEW025 SCT045 13/11 Q1022 
Athens/Elef-Ven  37.93N 23.95E  94m  09/02/2016 21:20:00  10.0C  7.0C  82%  N/A  7 km/h, SW (230 degrees)  > 10000m  1022.0 mb  Few clouds at 760m
 
      LGAV 091920Z 23004KT 9999 FEW025 10/07 Q1022 NOSIG 
Chios Airport  38.32N 26.12E  4m  09/02/2016 21:20:00  7.0C  5.0C  87%  N/A  6 km/h, Variable  > 10000m  1022.0 mb  Few clouds at 760m
 
      LGHI 091920Z VRB03KT 9999 FEW025 07/05 Q1022 
Elefsis (Hel-Afb  38.07N 23.55E  31m  09/02/2016 21:20:00  7.0C  5.0C  87%  N/A  Calm  > 10000m  1021.0 mb           LGEL 091920Z 00000KT CAVOK 07/05 Q1021 
Ioannis Kapodist  39.60N 19.92E  2m  09/02/2016 21:20:00  14.0C  12.0C  88%  N/A  26 km/h, SE (130 degrees)  > 10000m  1021.0 mb  Few clouds at 370m
Scattered clouds at 550m
Broken clouds at 760m
 
      LGKR 091920Z 13014KT 9999 FEW012 SCT018 BKN025 14/12 Q1021 NOSIG 
Iraklion (Civ/Af  35.32N 25.17E  39m  09/02/2016 21:20:00  9.0C  4.0C  71%  N/A  11 km/h, S (170 degrees)  > 10000m  1023.0 mb  Few clouds at 760m
 
      LGIR 091920Z 17006KT 9999 FEW025 09/04 Q1023 NOSIG 
Kalamata (Hel-Af  37.07N 22.02E  8m  09/02/2016 20:50:00  10.0C  7.0C  82%  N/A  Calm  > 10000m  1023.0 mb           LGKL 091850Z 00000KT CAVOK 10/07 Q1023 
Karpathos  35.42N 27.15E  20m  09/02/2016 21:20:00  8.0C  4.0C  76%  N/A  9 km/h, NW (310 degrees)    1023.0 mb           LGKP 091920Z AUTO 31005KT //// // ////// 08/04 Q1023 RE// 
Kavala/Chrisoupo  40.92N 24.62E  5m  09/02/2016 21:20:00  9.0C  6.0C  81%  N/A  Calm  > 10000m  1021.0 mb  Few clouds at 910m
Scattered clouds at 2400m
 
      LGKV 091920Z 00000KT 9999 FEW030 SCT080 09/06 Q1021 
Kefallinia  38.12N 20.50E  18m  09/02/2016 19:50:00  15.0C  12.0C  82%  N/A  9 km/h, SSW (200 degrees)  > 10000m  1023.0 mb  Scattered clouds at 550m
Scattered clouds at 760m
 
      LGKF 091750Z 20005KT 9999 SCT018 SCT025 15/12 Q1023 
Kos Airport  36.80N 27.08E  130m  09/02/2016 20:50:00  8.0C  2.0C  66%  N/A  Calm  > 10000m  1022.0 mb  Few clouds at 610m
 
      LGKO 091850Z 00000KT 9999 FEW020 08/02 Q1022 
Kozani (Civ/Army  40.28N 21.85E  630m  09/02/2016 19:50:00  7.0C  3.0C  76%  N/A  Calm  > 10000m  1020.0 mb  Scattered clouds at 910m
Scattered clouds at 2400m
 
      LGKZ 091750Z 00000KT 9999 SCT030 SCT080 07/03 Q1020 
Limnos Island Ar  39.92N 25.23E  5m  09/02/2016 20:50:00  11.0C  7.0C  76%  N/A  11 km/h, SSE (150 degrees)  > 10000m  1021.0 mb  Few clouds at 550m
Broken clouds at 760m
 
      LGLM 091850Z 15006KT 9999 FEW018 BKN025 11/07 Q1021 
Mikonos Island  37.43N 25.35E  120m  09/02/2016 19:50:00  12.0C  6.0C  67%  N/A  6 km/h, S (180 degrees)  > 10000m  1022.0 mb  Few clouds at 610m
Scattered clouds at 1100m
 
      LGMK 091750Z 18003KT 9999 FEW020 SCT035 12/06 Q1022 
Mitilini  39.05N 26.60E  17m  09/02/2016 21:20:00  6.0C  4.0C  87%  N/A  7 km/h, SW (220 degrees)  > 10000m  1023.0 mb  Few clouds at 760m
 
      LGMT 091920Z 22004KT 9999 FEW025 06/04 Q1023 
Paros  37.00N 25.07E  36m  09/02/2016 16:20:00  14.0C  7.0C  63%  N/A  7 km/h, Variable  > 10000m  1023.0 mb  Few clouds at 1100m
 
      LGPA 091420Z VRB04KT 9999 FEW035 14/07 Q1023 
Preveza/Aktion  38.62N 20.77E  4m  09/02/2016 20:50:00  11.0C  9.0C  87%  N/A  11 km/h, NE (50 degrees)  > 10000m  1021.0 mb  Scattered clouds at 550m
Scattered clouds at 2400m
 
      LGPZ 091850Z 05006KT 9999 SCT018 SCT080 11/09 Q1021 
Rhodes/Diagoras  36.40N 28.08E  5m  09/02/2016 21:20:00  11.0C  7.0C  76%  N/A  4 km/h, Variable  > 10000m  1023.0 mb  Scattered clouds at 610m
 
      LGRP 091920Z VRB02KT 9999 SCT020 11/07 Q1023 NOSIG 
Samos Airport  37.68N 26.92E  6m  09/02/2016 18:50:00  11.0C  8.0C  82%  N/A  4 km/h, W (280 degrees)  > 10000m  1023.0 mb           LGSM 091650Z 28002KT CAVOK 11/08 Q1023 
Santorini Island  36.40N 25.48E  40m  09/02/2016 21:20:00  10.0C  6.0C  76%  N/A  13 km/h, WSW (240 degrees)    1023.0 mb           LGSR 091920Z AUTO 24007KT //// // ////// 10/06 Q1023 RE// 
Skiathos Island  39.18N 23.50E  15m  09/02/2016 13:50:00  14.0C  8.0C  67%  N/A  7 km/h, SSW (200 degrees)  > 10000m  1022.0 mb  Few clouds at 550m
 
      LGSK 091150Z 20004KT 9999 FEW018 14/08 Q1022 
Souda/Khania (Af  35.47N 24.12E  150m  09/02/2016 21:20:00  10.0C  7.0C  82%  N/A  Calm  > 10000m  1022.0 mb  Few clouds at 610m
 
      LGSA 091920Z 00000KT 9999 FEW020 10/07 Q1022 
Syros  37.42N 24.95E  72m  09/02/2016 21:20:00  11.0C  8.0C  82%  N/A  9 km/h, SSW (210 degrees)    1022.0 mb           LGSO 091920Z AUTO 21005KT //// // ////// 11/08 Q1022 RE// 
Thessaloniki/Mik  40.52N 22.97E  7m  09/02/2016 21:20:00  9.0C  6.0C  81%  N/A  6 km/h, Variable  > 10000m  1019.0 mb  Scattered clouds at 910m
Scattered clouds at 2100m
 
      LGTS 091920Z VRB03KT 9999 SCT030 SCT070 09/06 Q1019 NOSIG 
Zakinthos Airpor  37.75N 20.87E  3m  09/02/2016 19:50:00  11.0C  10.0C  94%  N/A  6 km/h, Variable  > 10000m  1022.0 mb  Few clouds at 610m
 
      LGZA 091750Z VRB03KT 9999 FEW020 11/10 Q1022